Time;durP1;ratioP1;P1;durP2;ratioP2;P2;SDS_P1;SDS_P2;PMS_P1;PMS_P2;Temp;Humidity;BMP_temperature;BMP_pressure;BME280_temperature;BME280_humidity;BME280_pressure;Samples;Min_cycle;Max_cycle;Signal;HPM_P1;HPM_P2
2022/04/09 00:00:52;;;;;;;;;;;20.60;39.00;;;;;;5063527;28;20013;-51
2022/04/09 00:03:19;;;;;;;;;;;20.60;39.00;;;;;;5079610;28;20615;-53
2022/04/09 00:05:47;;;;;;;;;;;20.60;39.00;;;;;;5057442;28;19928;-52
2022/04/09 00:08:14;;;;;;;;;;;20.60;39.60;;;;;;5071986;28;19931;-52
2022/04/09 00:10:41;;;;;;;;;;;20.60;39.00;;;;;;5077533;28;19924;-48
2022/04/09 00:13:07;;;;;;;;;;;20.60;39.00;;;;;;5061998;28;20266;-53
2022/04/09 00:15:34;;;;;;;;;;;20.60;39.00;;;;;;5086670;28;19934;-51
2022/04/09 00:18:01;;;;;;;;;;;20.60;39.00;;;;;;5061409;28;19931;-51
2022/04/09 00:20:28;;;;;;;;;;;20.60;39.00;;;;;;5091025;28;19928;-53
2022/04/09 00:22:56;;;;;;;;;;;20.60;39.00;;;;;;5074117;28;20019;-49
2022/04/09 00:25:24;;;;;;;;;;;20.60;39.00;;;;;;5080741;28;19928;-49
2022/04/09 00:27:50;;;;;;;;;;;20.60;39.00;;;;;;5081322;28;19933;-49
2022/04/09 00:30:17;;;;;;;;;;;20.60;39.00;;;;;;5064486;28;19928;-53
2022/04/09 00:32:44;;;;;;;;;;;20.60;39.00;;;;;;5103275;28;19948;-51
2022/04/09 00:35:11;;;;;;;;;;;20.60;39.00;;;;;;5075150;28;20301;-48
2022/04/09 00:37:41;;;;;;;;;;;20.60;39.00;;;;;;5074060;28;19931;-53
2022/04/09 00:40:10;;;;;;;;;;;20.60;39.00;;;;;;5074751;28;19947;-52
2022/04/09 00:42:37;;;;;;;;;;;20.60;39.00;;;;;;5102276;28;19990;-51
2022/04/09 00:45:05;;;;;;;;;;;20.60;38.90;;;;;;5074330;28;19928;-53
2022/04/09 00:47:31;;;;;;;;;;;20.60;38.90;;;;;;5073523;28;20299;-52
2022/04/09 00:49:58;;;;;;;;;;;20.60;38.90;;;;;;5076475;28;19968;-52
2022/04/09 00:52:25;;;;;;;;;;;20.60;38.90;;;;;;5077082;28;19925;-49
2022/04/09 00:54:52;;;;;;;;;;;20.60;38.90;;;;;;5073780;28;19931;-49
2022/04/09 00:57:21;;;;;;;;;;;20.60;38.90;;;;;;5079191;28;19991;-53
2022/04/09 00:59:48;;;;;;;;;;;20.60;38.90;;;;;;5092213;28;19924;-51
2022/04/09 01:02:15;;;;;;;;;;;20.60;38.90;;;;;;5071126;28;19936;-52
2022/04/09 01:04:42;;;;;;;;;;;20.60;38.90;;;;;;5072156;28;19925;-51
2022/04/09 01:07:09;;;;;;;;;;;20.60;38.90;;;;;;5069903;28;19931;-54
2022/04/09 01:09:36;;;;;;;;;;;20.60;38.90;;;;;;5090178;28;19956;-51
2022/04/09 01:12:03;;;;;;;;;;;20.60;38.80;;;;;;5077201;28;19925;-48
2022/04/09 01:14:33;;;;;;;;;;;20.50;38.80;;;;;;5077833;28;19932;-49
2022/04/09 01:16:59;;;;;;;;;;;20.50;38.70;;;;;;5081081;28;19932;-48
2022/04/09 01:19:26;;;;;;;;;;;20.50;38.70;;;;;;5078295;28;20174;-51
2022/04/09 01:21:54;;;;;;;;;;;20.60;38.80;;;;;;5092387;28;20007;-53
2022/04/09 01:24:22;;;;;;;;;;;20.60;38.80;;;;;;5091350;28;19924;-52
2022/04/09 01:26:48;;;;;;;;;;;20.50;38.70;;;;;;5077320;28;19924;-54
2022/04/09 01:29:15;;;;;;;;;;;20.50;38.80;;;;;;5086536;28;19978;-53
2022/04/09 01:31:42;;;;;;;;;;;20.50;38.70;;;;;;5078089;28;19956;-47
2022/04/09 01:34:09;;;;;;;;;;;20.50;38.70;;;;;;5065551;28;19932;-49
2022/04/09 01:36:35;;;;;;;;;;;20.50;38.70;;;;;;5088721;28;19924;-51
2022/04/09 01:39:02;;;;;;;;;;;20.50;38.70;;;;;;5087831;28;20349;-50
2022/04/09 01:41:30;;;;;;;;;;;20.50;38.70;;;;;;5078206;28;19925;-53
2022/04/09 01:43:57;;;;;;;;;;;20.50;38.70;;;;;;5093083;28;19924;-54
2022/04/09 01:46:24;;;;;;;;;;;20.50;38.70;;;;;;5070434;28;20351;-52
2022/04/09 01:48:50;;;;;;;;;;;20.50;38.70;;;;;;5090437;28;19952;-56
2022/04/09 01:51:17;;;;;;;;;;;20.50;38.70;;;;;;5068690;28;19978;-54
2022/04/09 01:53:44;;;;;;;;;;;20.50;38.70;;;;;;5076462;28;19924;-51
2022/04/09 01:56:11;;;;;;;;;;;20.50;38.70;;;;;;5067451;28;19986;-47
2022/04/09 01:58:40;;;;;;;;;;;20.50;38.60;;;;;;5068938;28;19963;-51
2022/04/09 02:01:06;;;;;;;;;;;20.50;38.60;;;;;;5076178;28;19947;-52
2022/04/09 02:03:34;;;;;;;;;;;20.50;38.60;;;;;;5072592;28;20015;-52
2022/04/09 02:06:01;;;;;;;;;;;20.50;38.60;;;;;;5089162;28;19928;-50
2022/04/09 02:08:29;;;;;;;;;;;20.50;38.60;;;;;;5073094;28;19932;-53
2022/04/09 02:10:55;;;;;;;;;;;20.50;38.60;;;;;;5077540;28;19932;-51
2022/04/09 02:13:22;;;;;;;;;;;20.50;38.60;;;;;;5071659;28;19939;-52
2022/04/09 02:15:50;;;;;;;;;;;20.50;38.60;;;;;;5074472;28;19925;-49
2022/04/09 02:18:17;;;;;;;;;;;20.50;38.60;;;;;;5069594;28;19971;-55
2022/04/09 02:20:44;;;;;;;;;;;20.50;38.60;;;;;;5074154;28;20545;-50
2022/04/09 02:23:11;;;;;;;;;;;20.50;38.60;;;;;;5069248;28;20023;-53
2022/04/09 02:25:37;;;;;;;;;;;20.50;38.50;;;;;;5091876;28;20369;-51
2022/04/09 02:28:05;;;;;;;;;;;20.50;38.50;;;;;;5091681;28;19931;-48
2022/04/09 02:30:32;;;;;;;;;;;20.50;38.50;;;;;;5078169;28;19934;-50
2022/04/09 02:33:00;;;;;;;;;;;20.50;38.50;;;;;;5074268;28;19924;-50
2022/04/09 02:35:28;;;;;;;;;;;20.50;38.50;;;;;;5074333;28;19932;-50
2022/04/09 02:37:54;;;;;;;;;;;20.50;38.50;;;;;;5073517;28;19931;-50
2022/04/09 02:40:21;;;;;;;;;;;20.50;38.50;;;;;;5073178;28;19936;-55
2022/04/09 02:42:48;;;;;;;;;;;20.50;38.50;;;;;;5072527;28;19928;-52
2022/04/09 02:45:14;;;;;;;;;;;20.50;38.50;;;;;;5087012;28;20003;-53
2022/04/09 02:47:41;;;;;;;;;;;20.50;38.50;;;;;;5083724;28;20377;-54
2022/04/09 02:50:10;;;;;;;;;;;20.50;38.40;;;;;;5057194;28;19928;-52
2022/04/09 02:52:37;;;;;;;;;;;20.50;38.50;;;;;;5088991;28;19999;-51
2022/04/09 02:55:05;;;;;;;;;;;20.50;38.40;;;;;;5067932;28;20007;-53
2022/04/09 02:57:31;;;;;;;;;;;20.50;38.40;;;;;;5065181;28;20476;-48
2022/04/09 02:59:58;;;;;;;;;;;20.50;38.40;;;;;;5088279;28;19925;-49
2022/04/09 03:02:25;;;;;;;;;;;20.50;38.40;;;;;;5074909;28;19946;-51
2022/04/09 03:04:53;;;;;;;;;;;20.50;38.40;;;;;;5076954;28;19932;-51
2022/04/09 03:07:23;;;;;;;;;;;20.50;38.40;;;;;;5069341;28;20712;-50
2022/04/09 03:09:49;;;;;;;;;;;20.50;38.40;;;;;;5074124;28;19928;-52
2022/04/09 03:12:16;;;;;;;;;;;20.50;38.40;;;;;;5073355;28;19931;-55
2022/04/09 03:14:45;;;;;;;;;;;20.50;38.40;;;;;;5080085;28;19952;-47
2022/04/09 03:17:11;;;;;;;;;;;20.50;38.40;;;;;;5070445;28;20397;-51
2022/04/09 03:19:38;;;;;;;;;;;20.50;38.40;;;;;;5076719;28;19952;-51
2022/04/09 03:22:05;;;;;;;;;;;20.50;38.40;;;;;;5070468;28;20369;-48
2022/04/09 03:24:33;;;;;;;;;;;20.50;38.30;;;;;;5076141;28;19964;-51
2022/04/09 03:27:00;;;;;;;;;;;20.50;38.30;;;;;;5073380;28;19930;-52
2022/04/09 03:29:27;;;;;;;;;;;20.50;38.30;;;;;;5074856;28;19935;-52
2022/04/09 03:31:54;;;;;;;;;;;20.50;38.30;;;;;;5092140;28;19952;-50
2022/04/09 03:34:20;;;;;;;;;;;20.50;38.30;;;;;;5073954;28;20396;-50
2022/04/09 03:36:47;;;;;;;;;;;20.50;38.30;;;;;;5074879;28;20381;-52
2022/04/09 03:39:14;;;;;;;;;;;20.50;38.30;;;;;;5074332;28;19931;-52
2022/04/09 03:41:42;;;;;;;;;;;20.50;38.30;;;;;;5073534;28;19928;-53
2022/04/09 03:44:08;;;;;;;;;;;20.50;38.30;;;;;;5074383;28;19924;-51
2022/04/09 03:46:35;;;;;;;;;;;20.50;38.30;;;;;;5077280;28;19928;-49
2022/04/09 03:49:02;;;;;;;;;;;20.50;38.30;;;;;;5087498;28;19928;-52
2022/04/09 03:51:29;;;;;;;;;;;20.50;38.30;;;;;;5088105;28;19946;-50
2022/04/09 03:53:56;;;;;;;;;;;20.50;38.30;;;;;;5065939;28;20016;-48
2022/04/09 03:56:23;;;;;;;;;;;20.50;38.30;;;;;;5065462;28;19950;-50
2022/04/09 03:58:51;;;;;;;;;;;20.50;38.30;;;;;;5068210;28;19929;-48
2022/04/09 04:01:17;;;;;;;;;;;20.50;38.30;;;;;;5070570;28;19964;-52
2022/04/09 04:03:45;;;;;;;;;;;20.50;38.30;;;;;;5069060;28;19967;-49
2022/04/09 04:06:11;;;;;;;;;;;20.50;38.30;;;;;;5073442;28;19931;-50
2022/04/09 04:08:38;;;;;;;;;;;20.50;38.20;;;;;;5073050;28;19928;-51
2022/04/09 04:11:06;;;;;;;;;;;20.50;38.20;;;;;;5073236;28;20016;-52
2022/04/09 04:13:35;;;;;;;;;;;20.50;38.20;;;;;;5096157;28;19929;-52
2022/04/09 04:16:04;;;;;;;;;;;20.50;38.20;;;;;;5077503;28;19974;-51
2022/04/09 04:18:31;;;;;;;;;;;20.50;38.20;;;;;;5073812;28;20015;-51
2022/04/09 04:20:57;;;;;;;;;;;20.50;38.20;;;;;;5079925;28;19928;-46
2022/04/09 04:23:24;;;;;;;;;;;20.50;38.20;;;;;;5058696;28;19932;-53
2022/04/09 04:25:51;;;;;;;;;;;20.50;38.20;;;;;;5080920;28;20162;-52
2022/04/09 04:28:18;;;;;;;;;;;20.50;38.20;;;;;;5080532;28;20337;-48
2022/04/09 04:30:44;;;;;;;;;;;20.50;38.20;;;;;;5077260;28;20567;-54
2022/04/09 04:33:12;;;;;;;;;;;20.40;38.10;;;;;;5073778;28;19924;-52
2022/04/09 04:35:39;;;;;;;;;;;20.50;38.20;;;;;;5091479;28;19935;-49
2022/04/09 04:38:06;;;;;;;;;;;20.50;38.20;;;;;;5075931;28;19924;-55
2022/04/09 04:40:33;;;;;;;;;;;20.40;38.10;;;;;;5075932;28;19955;-53
2022/04/09 04:42:59;;;;;;;;;;;20.40;38.10;;;;;;5076751;28;20367;-49
2022/04/09 04:45:26;;;;;;;;;;;20.40;38.10;;;;;;5076769;28;19930;-51
2022/04/09 04:47:53;;;;;;;;;;;20.40;38.10;;;;;;5078522;28;20478;-47
2022/04/09 04:50:21;;;;;;;;;;;20.40;38.00;;;;;;5071457;28;19931;-52
2022/04/09 04:52:48;;;;;;;;;;;20.50;38.20;;;;;;5076843;28;20019;-51
2022/04/09 04:55:15;;;;;;;;;;;20.40;38.10;;;;;;5082203;28;20019;-51
2022/04/09 04:57:42;;;;;;;;;;;20.40;38.70;;;;;;5092258;28;20011;-51
2022/04/09 05:00:09;;;;;;;;;;;20.40;38.10;;;;;;5092927;28;19931;-52
2022/04/09 05:02:36;;;;;;;;;;;20.40;38.10;;;;;;5065039;28;19987;-50
2022/04/09 05:05:03;;;;;;;;;;;20.40;38.10;;;;;;5074977;28;19934;-48
2022/04/09 05:07:38;;;;;;;;;;;20.50;38.20;;;;;;5087787;28;19925;-52
2022/04/09 05:10:05;;;;;;;;;;;20.50;38.20;;;;;;5072338;28;19954;-50
2022/04/09 05:12:33;;;;;;;;;;;20.50;38.20;;;;;;5064850;28;19928;-48
2022/04/09 05:15:00;;;;;;;;;;;20.40;38.10;;;;;;5090541;28;20417;-51
2022/04/09 05:17:27;;;;;;;;;;;20.40;38.10;;;;;;5067297;28;19924;-51
2022/04/09 05:19:53;;;;;;;;;;;20.50;38.20;;;;;;5063058;28;19962;-49
2022/04/09 05:22:20;;;;;;;;;;;20.40;38.10;;;;;;5062089;28;19956;-49
2022/04/09 05:24:49;;;;;;;;;;;20.40;38.10;;;;;;5071992;28;19967;-50
2022/04/09 05:27:16;;;;;;;;;;;20.50;38.20;;;;;;5070045;28;19925;-46
2022/04/09 05:29:43;;;;;;;;;;;20.50;38.20;;;;;;5069188;28;19924;-47
2022/04/09 05:32:09;;;;;;;;;;;20.50;38.10;;;;;;5060937;28;19978;-53
2022/04/09 05:34:36;;;;;;;;;;;20.50;38.10;;;;;;5079843;28;19931;-49
2022/04/09 05:37:03;;;;;;;;;;;20.40;38.00;;;;;;5071453;28;19975;-46
2022/04/09 05:39:30;;;;;;;;;;;20.50;38.10;;;;;;5061251;28;19924;-48
2022/04/09 05:41:58;;;;;;;;;;;20.50;38.10;;;;;;5064496;28;19967;-48
2022/04/09 05:44:24;;;;;;;;;;;20.40;38.00;;;;;;5084207;28;20390;-45
2022/04/09 05:46:51;;;;;;;;;;;20.40;38.00;;;;;;5085264;28;20390;-51
2022/04/09 05:49:18;;;;;;;;;;;20.40;38.00;;;;;;5064827;28;19931;-46
2022/04/09 05:51:44;;;;;;;;;;;20.50;38.00;;;;;;5066142;28;19932;-46
2022/04/09 05:54:11;;;;;;;;;;;20.40;38.00;;;;;;5068594;28;19936;-49
2022/04/09 05:56:38;;;;;;;;;;;20.40;38.00;;;;;;5068716;28;20023;-51
2022/04/09 05:59:06;;;;;;;;;;;20.40;37.90;;;;;;5067771;28;20440;-47
2022/04/09 06:01:32;;;;;;;;;;;20.40;37.90;;;;;;5064988;28;19957;-46
2022/04/09 06:04:01;;;;;;;;;;;20.40;37.90;;;;;;5081544;28;20411;-46
2022/04/09 06:06:28;;;;;;;;;;;20.40;37.90;;;;;;5067843;28;20179;-48
2022/04/09 06:08:55;;;;;;;;;;;20.40;37.90;;;;;;5063252;28;19928;-46
2022/04/09 06:11:21;;;;;;;;;;;20.40;37.90;;;;;;5064192;28;19932;-50
2022/04/09 06:13:48;;;;;;;;;;;20.40;37.90;;;;;;5067692;28;19999;-53
2022/04/09 06:16:16;;;;;;;;;;;20.40;37.90;;;;;;5069274;28;19929;-46
2022/04/09 06:18:43;;;;;;;;;;;20.40;37.90;;;;;;5085558;28;19924;-48
2022/04/09 06:21:09;;;;;;;;;;;20.40;37.90;;;;;;5065403;28;20038;-46
2022/04/09 06:23:36;;;;;;;;;;;20.40;37.90;;;;;;5070436;28;19947;-48
2022/04/09 06:26:03;;;;;;;;;;;20.40;37.90;;;;;;5067635;28;20014;-48
2022/04/09 06:28:30;;;;;;;;;;;20.40;37.80;;;;;;5072922;28;20009;-46
2022/04/09 06:30:58;;;;;;;;;;;20.40;37.80;;;;;;5072845;28;20180;-46
2022/04/09 06:33:26;;;;;;;;;;;20.40;37.80;;;;;;5070531;28;20394;-48
2022/04/09 06:35:52;;;;;;;;;;;20.40;37.80;;;;;;5069311;28;20018;-47
2022/04/09 06:38:19;;;;;;;;;;;20.40;37.80;;;;;;5055277;28;19925;-47
2022/04/09 06:40:46;;;;;;;;;;;20.40;37.80;;;;;;5065514;28;19944;-46
2022/04/09 06:43:13;;;;;;;;;;;20.40;37.80;;;;;;5070468;28;19930;-47
2022/04/09 06:45:40;;;;;;;;;;;20.40;37.80;;;;;;5068802;28;19929;-48
2022/04/09 06:48:07;;;;;;;;;;;20.40;37.80;;;;;;5067617;28;20014;-48
2022/04/09 06:50:35;;;;;;;;;;;20.40;37.80;;;;;;5069792;28;19925;-47
2022/04/09 06:53:02;;;;;;;;;;;20.40;37.80;;;;;;5061964;28;20014;-47
2022/04/09 06:55:28;;;;;;;;;;;20.40;37.80;;;;;;5069551;28;19929;-46
2022/04/09 06:58:00;;;;;;;;;;;20.40;37.80;;;;;;5069238;28;20401;-48
2022/04/09 07:00:26;;;;;;;;;;;20.40;37.80;;;;;;5066234;28;19928;-46
2022/04/09 07:02:53;;;;;;;;;;;20.40;38.00;;;;;;5063449;28;19929;-49
2022/04/09 07:05:20;;;;;;;;;;;20.40;37.80;;;;;;5069778;28;20296;-48
2022/04/09 07:07:49;;;;;;;;;;;20.40;37.80;;;;;;5087931;28;20359;-50
2022/04/09 07:10:16;;;;;;;;;;;20.40;37.80;;;;;;5067929;28;19998;-46
2022/04/09 07:12:43;;;;;;;;;;;20.40;37.80;;;;;;5069375;28;19936;-45
2022/04/09 07:15:10;;;;;;;;;;;20.40;37.80;;;;;;5073945;28;19924;-52
2022/04/09 07:17:37;;;;;;;;;;;20.40;37.80;;;;;;5076352;28;19924;-45
2022/04/09 07:20:04;;;;;;;;;;;20.40;37.80;;;;;;5062331;28;19932;-46
2022/04/09 07:22:31;;;;;;;;;;;20.40;37.90;;;;;;5080692;28;19924;-50
2022/04/09 07:25:00;;;;;;;;;;;20.40;37.90;;;;;;5060331;28;19928;-48
2022/04/09 07:27:34;;;;;;;;;;;20.40;37.90;;;;;;5080643;28;19928;-48
2022/04/09 07:30:01;;;;;;;;;;;20.40;37.90;;;;;;5044330;28;19924;-45
2022/04/09 07:32:27;;;;;;;;;;;20.40;38.00;;;;;;5065604;28;19936;-44
2022/04/09 07:34:54;;;;;;;;;;;20.40;38.00;;;;;;5070291;28;19936;-47
2022/04/09 07:37:21;;;;;;;;;;;20.40;38.00;;;;;;5088352;28;19924;-45
2022/04/09 07:39:47;;;;;;;;;;;20.40;38.00;;;;;;5069941;28;19928;-45
2022/04/09 07:42:16;;;;;;;;;;;20.40;38.10;;;;;;5078461;28;19931;-51
2022/04/09 07:44:43;;;;;;;;;;;20.40;38.00;;;;;;5083099;28;19978;-50
2022/04/09 07:47:09;;;;;;;;;;;20.40;38.00;;;;;;5086964;28;19972;-48
2022/04/09 07:49:36;;;;;;;;;;;20.40;38.00;;;;;;5072990;28;19932;-45
2022/04/09 07:52:03;;;;;;;;;;;20.40;38.10;;;;;;5067088;28;20319;-49
2022/04/09 07:54:31;;;;;;;;;;;20.40;38.70;;;;;;5071401;28;20002;-48
2022/04/09 07:56:57;;;;;;;;;;;20.40;38.10;;;;;;5082733;28;20341;-45
2022/04/09 07:59:26;;;;;;;;;;;20.40;38.10;;;;;;5088154;28;19935;-49
2022/04/09 08:01:53;;;;;;;;;;;20.40;38.10;;;;;;5085845;28;20029;-45
2022/04/09 08:04:20;;;;;;;;;;;20.40;38.10;;;;;;5087546;28;19934;-46
2022/04/09 08:06:47;;;;;;;;;;;20.40;38.10;;;;;;5065951;28;19935;-50
2022/04/09 08:09:14;;;;;;;;;;;20.50;38.20;;;;;;5079917;28;20035;-50
2022/04/09 08:11:41;;;;;;;;;;;20.50;38.20;;;;;;5088862;28;19931;-52
2022/04/09 08:14:08;;;;;;;;;;;20.40;38.10;;;;;;5070533;28;19950;-48
2022/04/09 08:16:36;;;;;;;;;;;20.50;38.20;;;;;;5064857;28;19924;-47
2022/04/09 08:19:03;;;;;;;;;;;20.50;38.20;;;;;;5069962;28;19998;-49
2022/04/09 08:21:30;;;;;;;;;;;20.50;38.30;;;;;;5065791;28;19932;-48
2022/04/09 08:23:56;;;;;;;;;;;20.40;38.20;;;;;;5066376;28;19935;-45
2022/04/09 08:26:23;;;;;;;;;;;20.50;38.30;;;;;;5070398;28;19931;-52
2022/04/09 08:28:50;;;;;;;;;;;20.50;38.30;;;;;;5091731;28;19928;-48
2022/04/09 08:31:16;;;;;;;;;;;20.50;38.30;;;;;;5063993;28;20369;-50
2022/04/09 08:33:45;;;;;;;;;;;20.50;38.30;;;;;;5070131;28;19928;-46
2022/04/09 08:36:11;;;;;;;;;;;20.50;38.30;;;;;;5062766;28;19924;-49
2022/04/09 08:38:38;;;;;;;;;;;20.50;38.30;;;;;;5071682;28;20392;-49
2022/04/09 08:41:05;;;;;;;;;;;20.50;38.30;;;;;;5072347;28;19924;-46
2022/04/09 08:43:31;;;;;;;;;;;20.50;38.30;;;;;;5071384;28;20293;-48
2022/04/09 08:46:00;;;;;;;;;;;20.50;38.30;;;;;;5074541;28;19925;-47
2022/04/09 08:48:26;;;;;;;;;;;20.50;38.30;;;;;;5067756;28;19924;-49
2022/04/09 08:50:54;;;;;;;;;;;20.50;38.40;;;;;;5075110;28;20259;-46
2022/04/09 08:53:21;;;;;;;;;;;20.50;38.40;;;;;;5080220;28;19928;-45
2022/04/09 08:55:48;;;;;;;;;;;20.50;38.40;;;;;;5061588;28;19931;-46
2022/04/09 08:58:15;;;;;;;;;;;20.50;38.40;;;;;;5067582;28;19928;-45
2022/04/09 09:00:45;;;;;;;;;;;20.50;38.40;;;;;;5070569;28;19931;-47
2022/04/09 09:03:14;;;;;;;;;;;20.50;38.40;;;;;;5071342;28;19924;-45
2022/04/09 09:05:41;;;;;;;;;;;20.50;38.40;;;;;;5070422;28;20027;-47
2022/04/09 09:08:10;;;;;;;;;;;20.50;38.40;;;;;;5069018;28;20437;-49
2022/04/09 09:10:37;;;;;;;;;;;20.50;38.40;;;;;;5066758;28;20003;-50
2022/04/09 09:13:05;;;;;;;;;;;20.50;38.40;;;;;;5071918;28;19931;-47
2022/04/09 09:15:32;;;;;;;;;;;20.50;39.00;;;;;;5070019;28;20011;-50
2022/04/09 09:17:58;;;;;;;;;;;20.50;38.40;;;;;;5065657;28;20019;-49
2022/04/09 09:20:25;;;;;;;;;;;20.50;38.40;;;;;;5073119;28;19934;-47
2022/04/09 09:22:52;;;;;;;;;;;20.50;38.40;;;;;;5059949;28;19971;-53
2022/04/09 09:25:21;;;;;;;;;;;20.50;38.50;;;;;;5087659;28;19931;-50
2022/04/09 09:27:55;;;;;;;;;;;20.50;38.40;;;;;;5067015;28;19933;-49
2022/04/09 09:30:21;;;;;;;;;;;20.50;38.50;;;;;;5067173;28;19947;-47
2022/04/09 09:33:03;;;;;;;;;;;20.50;38.40;;;;;;5055708;28;20024;-45
2022/04/09 09:35:32;;;;;;;;;;;20.50;38.30;;;;;;5082095;28;19928;-47
2022/04/09 09:38:03;;;;;;;;;;;20.50;38.30;;;;;;5076742;28;19925;-47
2022/04/09 09:40:34;;;;;;;;;;;20.50;38.30;;;;;;5077889;28;19932;-45
2022/04/09 09:43:13;;;;;;;;;;;20.50;38.30;;;;;;5073426;28;19935;-45
2022/04/09 09:45:40;;;;;;;;;;;20.50;38.40;;;;;;5060382;28;19950;-45
2022/04/09 09:48:07;;;;;;;;;;;20.50;38.40;;;;;;5066274;28;19924;-45
2022/04/09 09:50:40;;;;;;;;;;;20.50;38.40;;;;;;5069170;28;19932;-47
2022/04/09 09:53:07;;;;;;;;;;;20.50;38.40;;;;;;5087113;28;19935;-45
2022/04/09 09:55:43;;;;;;;;;;;20.50;38.40;;;;;;5070528;28;20323;-48
2022/04/09 09:58:10;;;;;;;;;;;20.50;38.40;;;;;;5071863;28;19930;-48
2022/04/09 10:00:37;;;;;;;;;;;20.50;38.50;;;;;;5068881;28;19982;-44
2022/04/09 10:03:05;;;;;;;;;;;20.50;38.50;;;;;;5067993;28;19924;-47
2022/04/09 10:05:32;;;;;;;;;;;20.50;38.50;;;;;;5067431;28;20164;-46
2022/04/09 10:08:00;;;;;;;;;;;20.50;38.50;;;;;;5067055;28;19971;-46
2022/04/09 10:10:26;;;;;;;;;;;20.50;38.50;;;;;;5073981;28;20019;-50
2022/04/09 10:12:54;;;;;;;;;;;20.50;38.50;;;;;;5070329;28;20005;-47
2022/04/09 10:15:21;;;;;;;;;;;20.50;38.60;;;;;;5078994;28;19931;-48
2022/04/09 10:17:49;;;;;;;;;;;20.50;38.60;;;;;;5068438;28;19924;-46
2022/04/09 10:20:18;;;;;;;;;;;20.50;38.60;;;;;;5061707;28;20328;-46
2022/04/09 10:22:46;;;;;;;;;;;20.50;38.70;;;;;;5076421;28;20384;-50
2022/04/09 10:25:12;;;;;;;;;;;20.50;38.70;;;;;;5070896;28;20393;-49
2022/04/09 10:27:40;;;;;;;;;;;20.50;38.70;;;;;;5066624;28;19925;-48
2022/04/09 10:30:30;;;;;;;;;;;20.50;38.80;;;;;;5079849;28;19942;-49
2022/04/09 10:32:58;;;;;;;;;;;20.50;38.80;;;;;;5070908;28;19930;-45
2022/04/09 10:35:26;;;;;;;;;;;20.50;38.90;;;;;;5090695;28;19982;-45
2022/04/09 10:38:12;;;;;;;;;;;20.50;38.90;;;;;;5070013;28;20336;-45
2022/04/09 10:41:00;;;;;;;;;;;20.50;38.90;;;;;;5063896;28;20297;-51
2022/04/09 10:43:42;;;;;;;;;;;20.50;39.00;;;;;;5074393;28;19931;-46
2022/04/09 10:46:21;;;;;;;;;;;20.50;39.00;;;;;;5069575;28;19960;-46
2022/04/09 10:48:48;;;;;;;;;;;20.50;39.00;;;;;;5088233;28;19935;-48
2022/04/09 10:51:15;;;;;;;;;;;20.50;39.00;;;;;;5058677;28;19964;-46
2022/04/09 10:53:43;;;;;;;;;;;20.50;39.00;;;;;;5066720;28;19924;-51
2022/04/09 10:56:20;;;;;;;;;;;20.50;39.00;;;;;;5086574;28;19951;-49
2022/04/09 10:59:00;;;;;;;;;;;20.50;39.00;;;;;;5053170;28;19977;-44
2022/04/09 11:01:46;;;;;;;;;;;20.50;39.00;;;;;;5072063;28;19928;-48
2022/04/09 11:04:32;;;;;;;;;;;20.50;39.00;;;;;;5056033;28;19929;-49
2022/04/09 11:07:02;;;;;;;;;;;20.50;39.00;;;;;;5072036;28;19943;-45
2022/04/09 11:09:40;;;;;;;;;;;20.50;39.00;;;;;;5070152;28;20003;-53
2022/04/09 11:12:07;;;;;;;;;;;20.50;38.90;;;;;;5083901;28;19928;-45
2022/04/09 11:14:41;;;;;;;;;;;20.50;38.90;;;;;;5085534;28;20337;-51
2022/04/09 11:17:15;;;;;;;;;;;20.50;38.90;;;;;;5076168;28;20313;-47
2022/04/09 11:19:42;;;;;;;;;;;20.50;38.90;;;;;;5070416;28;19959;-45
2022/04/09 11:22:10;;;;;;;;;;;20.50;39.00;;;;;;5078968;28;19975;-48
2022/04/09 11:24:37;;;;;;;;;;;20.50;39.00;;;;;;5062671;28;19978;-48
2022/04/09 11:27:04;;;;;;;;;;;20.50;38.90;;;;;;5056098;28;19994;-46
2022/04/09 11:29:34;;;;;;;;;;;20.50;38.90;;;;;;5079531;28;20379;-46
2022/04/09 11:32:03;;;;;;;;;;;20.50;38.90;;;;;;5064897;28;23035;-47
2022/04/09 11:34:45;;;;;;;;;;;20.50;38.90;;;;;;5074813;28;19924;-50
2022/04/09 11:37:14;;;;;;;;;;;20.50;38.90;;;;;;5061880;28;19974;-46
2022/04/09 11:39:40;;;;;;;;;;;20.50;39.00;;;;;;5066766;28;19960;-51
2022/04/09 11:42:07;;;;;;;;;;;20.50;39.00;;;;;;5085961;28;19964;-49
2022/04/09 11:44:35;;;;;;;;;;;20.50;39.00;;;;;;5065620;28;19932;-49
2022/04/09 11:47:08;;;;;;;;;;;20.50;38.90;;;;;;5067124;28;19925;-48
2022/04/09 11:49:35;;;;;;;;;;;20.50;39.00;;;;;;5083110;28;20007;-51
2022/04/09 11:52:02;;;;;;;;;;;20.50;38.90;;;;;;5087260;28;19964;-51
2022/04/09 11:54:32;;;;;;;;;;;20.50;38.90;;;;;;5068254;28;19928;-53
2022/04/09 11:56:59;;;;;;;;;;;20.50;38.90;;;;;;5072505;28;19928;-48
2022/04/09 11:59:26;;;;;;;;;;;20.50;38.90;;;;;;5069111;28;19925;-50
2022/04/09 12:01:53;;;;;;;;;;;20.50;39.00;;;;;;5067710;28;19947;-49
2022/04/09 12:04:20;;;;;;;;;;;20.50;38.90;;;;;;5073759;28;19929;-47
2022/04/09 12:06:46;;;;;;;;;;;20.50;38.90;;;;;;5070480;28;19932;-53
2022/04/09 12:09:13;;;;;;;;;;;20.50;38.90;;;;;;5085369;28;19971;-50
2022/04/09 12:11:42;;;;;;;;;;;20.50;39.00;;;;;;5088750;28;20435;-49
2022/04/09 12:14:09;;;;;;;;;;;20.50;39.00;;;;;;5067830;28;19928;-51
2022/04/09 12:16:37;;;;;;;;;;;20.50;39.10;;;;;;5068874;28;19932;-52
2022/04/09 12:19:04;;;;;;;;;;;20.60;39.20;;;;;;5065548;28;19928;-51
2022/04/09 12:21:32;;;;;;;;;;;20.60;39.10;;;;;;5097407;28;19936;-49
2022/04/09 12:24:00;;;;;;;;;;;20.60;39.10;;;;;;5066420;28;19932;-48
2022/04/09 12:26:27;;;;;;;;;;;20.60;39.10;;;;;;5088010;28;19981;-50
2022/04/09 12:29:12;;;;;;;;;;;20.60;39.10;;;;;;5067333;28;20018;-51
2022/04/09 12:31:39;;;;;;;;;;;20.60;39.10;;;;;;5071481;28;19934;-49
2022/04/09 12:34:06;;;;;;;;;;;20.60;39.10;;;;;;5075451;28;19935;-47
2022/04/09 12:36:33;;;;;;;;;;;20.60;39.10;;;;;;5074586;28;19952;-52
2022/04/09 12:39:00;;;;;;;;;;;20.60;39.10;;;;;;5074999;28;19943;-49
2022/04/09 12:41:27;;;;;;;;;;;20.60;39.10;;;;;;5078119;28;19924;-49
2022/04/09 12:43:54;;;;;;;;;;;20.60;39.10;;;;;;5077489;28;19924;-51
2022/04/09 12:46:23;;;;;;;;;;;20.60;39.20;;;;;;5072175;28;19932;-50
2022/04/09 12:48:50;;;;;;;;;;;20.60;39.10;;;;;;5074286;28;19924;-50
2022/04/09 12:51:18;;;;;;;;;;;20.60;39.20;;;;;;5070332;28;19925;-49
2022/04/09 12:53:45;;;;;;;;;;;20.60;39.20;;;;;;5073390;28;19975;-54
2022/04/09 12:56:13;;;;;;;;;;;20.60;39.20;;;;;;5072121;28;19933;-48
2022/04/09 12:58:40;;;;;;;;;;;20.60;39.30;;;;;;5074194;28;20037;-50
2022/04/09 13:01:06;;;;;;;;;;;20.60;39.30;;;;;;5072552;28;20011;-48
2022/04/09 13:03:35;;;;;;;;;;;20.60;39.40;;;;;;5070355;28;19932;-49
2022/04/09 13:06:01;;;;;;;;;;;20.60;39.40;;;;;;5070014;28;19934;-49
2022/04/09 13:08:28;;;;;;;;;;;20.60;39.40;;;;;;5072669;28;19989;-51
2022/04/09 13:10:55;;;;;;;;;;;20.60;39.40;;;;;;5071788;28;19924;-51
2022/04/09 13:13:22;;;;;;;;;;;20.60;39.40;;;;;;5078080;28;19928;-49
2022/04/09 13:15:49;;;;;;;;;;;20.60;39.50;;;;;;5075257;28;19928;-50
2022/04/09 13:18:15;;;;;;;;;;;20.60;39.50;;;;;;5070687;28;19942;-52
2022/04/09 13:20:46;;;;;;;;;;;20.60;39.50;;;;;;5072274;28;20377;-52
2022/04/09 13:23:13;;;;;;;;;;;20.60;39.40;;;;;;5068150;28;20007;-48
2022/04/09 13:25:40;;;;;;;;;;;20.60;39.50;;;;;;5072800;28;20005;-48
2022/04/09 13:28:08;;;;;;;;;;;20.60;39.50;;;;;;5068899;28;19932;-50
2022/04/09 13:30:35;;;;;;;;;;;20.60;39.50;;;;;;5074119;28;20499;-50
2022/04/09 13:33:02;;;;;;;;;;;20.60;39.50;;;;;;5071817;28;20351;-52
2022/04/09 13:35:29;;;;;;;;;;;20.60;39.50;;;;;;5072632;28;19928;-50
2022/04/09 13:37:57;;;;;;;;;;;20.60;39.50;;;;;;5071779;28;20365;-50
2022/04/09 13:40:24;;;;;;;;;;;20.60;39.50;;;;;;5088518;28;20040;-50
2022/04/09 13:42:50;;;;;;;;;;;20.60;39.50;;;;;;5067965;28;20023;-48
2022/04/09 13:45:17;;;;;;;;;;;20.60;39.50;;;;;;5068127;28;19925;-47
2022/04/09 13:47:44;;;;;;;;;;;20.60;39.60;;;;;;5067138;28;20293;-49
2022/04/09 13:50:11;;;;;;;;;;;20.60;39.50;;;;;;5088671;28;19931;-48
2022/04/09 13:52:38;;;;;;;;;;;20.60;39.60;;;;;;5076572;28;20472;-48
2022/04/09 13:55:06;;;;;;;;;;;20.60;39.50;;;;;;5093678;28;19984;-49
2022/04/09 13:57:33;;;;;;;;;;;20.60;39.50;;;;;;5068808;28;19931;-47
2022/04/09 14:00:03;;;;;;;;;;;20.60;39.60;;;;;;5082112;28;19924;-47
2022/04/09 14:02:30;;;;;;;;;;;20.60;39.50;;;;;;5071422;28;19928;-51
2022/04/09 14:04:58;;;;;;;;;;;20.60;39.60;;;;;;5070142;28;19978;-51
2022/04/09 14:07:25;;;;;;;;;;;20.60;39.60;;;;;;5082784;28;19931;-47
2022/04/09 14:09:52;;;;;;;;;;;20.60;39.60;;;;;;5069045;28;19932;-46
2022/04/09 14:12:20;;;;;;;;;;;20.60;39.60;;;;;;5072286;28;20019;-52
2022/04/09 14:14:47;;;;;;;;;;;20.60;39.60;;;;;;5065982;28;19972;-49
2022/04/09 14:17:13;;;;;;;;;;;20.60;39.60;;;;;;5071099;28;19994;-50
2022/04/09 14:19:40;;;;;;;;;;;20.60;39.60;;;;;;5066708;28;20328;-49